Time;durP1;ratioP1;P1;durP2;ratioP2;P2;SDS_P1;SDS_P2;PMS_P1;PMS_P2;Temp;Humidity;BMP_temperature;BMP_pressure;BME280_temperature;BME280_humidity;BME280_pressure;Samples;Min_cycle;Max_cycle;Signal;HPM_P1;HPM_P2
2023/06/24 00:00:52;;;;;;;1.37;1.27;;;;;;;24.24;96.75;99403.91;5076456;28;20200;-66
2023/06/24 00:03:18;;;;;;;0.80;0.80;;;;;;;24.23;96.41;99390.97;5076159;28;20299;-66
2023/06/24 00:05:49;;;;;;;0.30;0.30;;;;;;;24.24;96.82;99401.28;5076863;28;20257;-66
2023/06/24 00:08:16;;;;;;;0.60;0.60;;;;;;;24.19;96.74;99394.81;5076245;28;20727;-66
2023/06/24 00:10:46;;;;;;;0.70;0.70;;;;;;;24.11;97.17;99392.78;5076813;28;20629;-66
2023/06/24 00:13:13;;;;;;;0.67;0.67;;;;;;;24.06;97.23;99381.91;5075919;28;20192;-66
2023/06/24 00:15:42;;;;;;;0.40;0.40;;;;;;;24.05;97.38;99396.78;5076523;28;20203;-66
2023/06/24 00:18:09;;;;;;;0.50;0.50;;;;;;;23.93;98.36;99389.97;5076156;28;20207;-66
2023/06/24 00:20:36;;;;;;;2.07;0.97;;;;;;;23.81;98.72;99380.53;5076721;28;20679;-66
2023/06/24 00:23:03;;;;;;;0.73;0.73;;;;;;;23.66;99.99;99378.38;5076093;28;20220;-66
2023/06/24 00:25:30;;;;;;;0.83;0.83;;;;;;;23.63;100.00;99383.88;5076603;28;20200;-66
2023/06/24 00:27:58;;;;;;;0.67;0.67;;;;;;;23.54;100.00;99385.47;5075746;28;20269;-66
2023/06/24 00:30:25;;;;;;;0.77;0.77;;;;;;;23.58;100.00;99376.44;5076428;28;20580;-66
2023/06/24 00:32:51;;;;;;;0.50;0.50;;;;;;;23.62;100.00;99380.41;5076326;28;20245;-66
2023/06/24 00:35:18;;;;;;;0.50;0.50;;;;;;;23.66;100.00;99379.22;5076293;28;20203;-66
2023/06/24 00:37:46;;;;;;;0.63;0.63;;;;;;;23.74;100.00;99383.81;5076552;28;20344;-66
2023/06/24 00:40:15;;;;;;;1.10;1.10;;;;;;;23.79;99.69;99382.47;5076112;28;20253;-66
2023/06/24 00:42:42;;;;;;;0.90;0.90;;;;;;;23.86;99.55;99383.59;5076543;28;20303;-66
2023/06/24 00:45:12;;;;;;;0.60;0.60;;;;;;;23.91;98.77;99373.56;5076179;28;20234;-66
2023/06/24 00:47:39;;;;;;;1.03;1.03;;;;;;;23.96;98.42;99371.38;5075712;28;20192;-66
2023/06/24 00:50:07;;;;;;;0.77;0.77;;;;;;;23.95;98.78;99374.97;5076239;28;20216;-66
2023/06/24 00:52:36;;;;;;;0.97;0.97;;;;;;;23.98;98.12;99385.16;5076071;28;20730;-65
2023/06/24 00:55:04;;;;;;;0.47;0.47;;;;;;;23.97;97.68;99378.25;5074295;28;20672;-66
2023/06/24 00:57:31;;;;;;;0.57;0.57;;;;;;;23.95;96.63;99369.72;5072720;28;20199;-65
2023/06/24 00:59:59;;;;;;;0.60;0.60;;;;;;;23.71;96.68;99371.81;5072966;28;20192;-66
2023/06/24 01:02:28;;;;;;;0.70;0.70;;;;;;;23.46;98.56;99366.97;5072390;28;20216;-65
2023/06/24 01:04:56;;;;;;;0.57;0.57;;;;;;;23.49;97.86;99378.00;5073042;28;20672;-66
2023/06/24 01:07:23;;;;;;;1.60;0.40;;;;;;;23.38;96.99;99377.22;5072474;28;20246;-66
2023/06/24 01:09:51;;;;;;;0.40;0.40;;;;;;;23.38;96.74;99375.44;5072852;28;20199;-66
2023/06/24 01:12:17;;;;;;;0.53;0.53;;;;;;;23.31;94.67;99378.69;5072442;28;20625;-66
2023/06/24 01:14:44;;;;;;;0.67;0.67;;;;;;;23.21;93.06;99372.53;5071889;28;20204;-66
2023/06/24 01:17:15;;;;;;;0.57;0.57;;;;;;;23.07;92.24;99375.47;5072576;28;20667;-65
2023/06/24 01:20:07;;;;;;;0.60;0.60;;;;;;;23.07;92.83;99376.28;5072621;28;20203;-66
2023/06/24 01:23:10;;;;;;;0.60;0.60;;;;;;;23.04;92.26;99375.75;5071812;28;20277;-66
2023/06/24 01:26:00;;;;;;;0.57;0.57;;;;;;;22.83;93.03;99375.69;5048960;28;20199;-66
2023/06/24 01:28:50;;;;;;;0.50;0.50;;;;;;;22.79;93.67;99362.03;5070207;28;20390;-66
2023/06/24 01:31:35;;;;;;;0.70;0.70;;;;;;;22.62;94.13;99367.75;5072285;28;20227;-65
2023/06/24 01:34:11;;;;;;;0.40;0.40;;;;;;;22.53;94.95;99365.88;5072196;28;20744;-66
2023/06/24 01:36:41;;;;;;;0.40;0.40;;;;;;;22.53;94.39;99368.47;5072354;28;20702;-65
2023/06/24 01:39:10;;;;;;;0.33;0.33;;;;;;;22.51;94.60;99367.78;5071544;28;20204;-66
2023/06/24 01:41:54;;;;;;;0.60;0.60;;;;;;;22.48;94.20;99368.88;5071936;28;20211;-66
2023/06/24 01:44:22;;;;;;;1.00;1.00;;;;;;;22.46;94.39;99369.91;5071762;28;20208;-66
2023/06/24 01:46:55;;;;;;;0.70;0.70;;;;;;;22.45;94.80;99373.50;5070830;28;20204;-65
2023/06/24 01:49:23;;;;;;;0.63;0.63;;;;;;;;;;5072127;28;20196;-65
2023/06/24 01:51:51;;;;;;;0.30;0.30;;;;;;;22.54;94.55;99372.75;5071889;28;20257;-66
2023/06/24 01:54:22;;;;;;;0.40;0.40;;;;;;;22.57;94.37;99372.50;5071737;28;20679;-65
2023/06/24 01:56:53;;;;;;;1.27;1.27;;;;;;;22.46;94.84;99362.06;5071618;28;20208;-66
2023/06/24 01:59:21;;;;;;;0.33;0.33;;;;;;;22.64;95.02;99388.53;5071519;28;20570;-66
2023/06/24 02:01:51;;;;;;;0.80;0.80;;;;;;;22.64;94.25;99384.16;5070576;28;20277;-66
2023/06/24 02:04:19;;;;;;;0.50;0.50;;;;;;;22.62;93.93;99388.66;5071756;28;20200;-66
2023/06/24 02:06:48;;;;;;;0.53;0.53;;;;;;;22.62;94.10;99387.84;5071114;28;20245;-65
2023/06/24 02:09:19;;;;;;;0.30;0.30;;;;;;;22.63;94.16;99395.53;5071693;28;20215;-66
2023/06/24 02:11:46;;;;;;;0.53;0.53;;;;;;;22.69;94.45;99396.84;5071542;28;20227;-65
2023/06/24 02:14:16;;;;;;;0.60;0.60;;;;;;;22.71;94.43;99401.03;5071338;28;20207;-66
2023/06/24 02:16:45;;;;;;;0.50;0.50;;;;;;;22.73;94.27;99403.50;5071696;28;20226;-66
2023/06/24 02:19:17;;;;;;;0.73;0.40;;;;;;;22.71;93.67;99400.19;5070575;28;20717;-65
2023/06/24 02:21:45;;;;;;;0.50;0.50;;;;;;;22.73;93.87;99404.34;5071464;28;20696;-65
2023/06/24 02:24:13;;;;;;;0.50;0.50;;;;;;;22.70;92.74;99404.59;5070121;28;20212;-65
2023/06/24 02:26:41;;;;;;;0.40;0.40;;;;;;;22.73;92.99;99416.56;5071572;28;20196;-65
2023/06/24 02:29:10;;;;;;;0.40;0.40;;;;;;;22.75;91.99;99418.09;5070668;28;20223;-65
2023/06/24 02:31:37;;;;;;;0.70;0.70;;;;;;;22.77;91.86;99423.22;5071253;28;20295;-65
2023/06/24 02:34:03;;;;;;;0.67;0.67;;;;;;;22.75;91.71;99418.09;5069916;28;20204;-65
2023/06/24 02:36:32;;;;;;;0.60;0.57;;;;;;;22.76;91.03;99419.78;5071367;28;20204;-65
2023/06/24 02:38:59;;;;;;;0.97;0.97;;;;;;;22.72;91.61;99418.34;5069738;28;20261;-65
2023/06/24 02:41:25;;;;;;;0.50;0.40;;;;;;;22.71;91.38;99419.31;5070893;28;20207;-65
2023/06/24 02:43:52;;;;;;;0.53;0.53;;;;;;;22.76;91.66;99438.06;5070818;28;20216;-65
2023/06/24 02:46:22;;;;;;;0.60;0.60;;;;;;;22.75;92.06;99433.78;5070683;28;20254;-65
2023/06/24 02:48:50;;;;;;;0.60;0.60;;;;;;;22.69;91.46;99429.06;5070682;28;20204;-66
2023/06/24 02:51:17;;;;;;;0.60;0.60;;;;;;;22.67;90.86;99433.59;5069545;28;20650;-65
2023/06/24 02:53:47;;;;;;;0.57;0.57;;;;;;;22.75;91.88;99443.41;5070742;28;20265;-65
2023/06/24 02:56:14;;;;;;;0.60;0.60;;;;;;;22.59;92.10;99417.63;5070355;28;20196;-65
2023/06/24 02:58:41;;;;;;;1.07;1.07;;;;;;;22.73;92.50;99440.94;5070491;28;20204;-65
2023/06/24 03:01:08;;;;;;;0.93;0.93;;;;;;;22.74;92.12;99434.75;5070248;28;20616;-65
2023/06/24 03:03:36;;;;;;;3.40;0.67;;;;;;;22.74;92.35;99432.16;5070257;28;20212;-65
2023/06/24 03:06:03;;;;;;;0.40;0.40;;;;;;;22.71;91.99;99432.41;5070610;28;20254;-65
2023/06/24 03:08:30;;;;;;;0.70;0.70;;;;;;;22.68;91.23;99437.84;5070031;28;20207;-65
2023/06/24 03:10:59;;;;;;;0.60;0.60;;;;;;;22.69;91.35;99439.50;5068104;28;20716;-65
2023/06/24 03:13:26;;;;;;;1.20;1.20;;;;;;;22.69;91.44;99434.28;5069771;28;20202;-65
2023/06/24 03:15:53;;;;;;;0.67;0.67;;;;;;;22.72;91.53;99434.03;5069963;28;20212;-65
2023/06/24 03:18:21;;;;;;;0.40;0.40;;;;;;;22.58;90.89;99421.22;5069838;28;20283;-65
2023/06/24 03:20:47;;;;;;;0.50;0.50;;;;;;;22.66;90.99;99439.75;5070522;28;20253;-65
2023/06/24 03:23:14;;;;;;;0.60;0.60;;;;;;;22.64;90.88;99444.25;5070143;28;20212;-65
2023/06/24 03:25:41;;;;;;;0.80;0.80;;;;;;;22.67;90.65;99445.81;5069889;28;20223;-65
2023/06/24 03:28:09;;;;;;;0.40;0.40;;;;;;;22.68;91.05;99445.69;5069732;28;20692;-65
2023/06/24 03:30:36;;;;;;;0.83;0.83;;;;;;;22.62;90.24;99445.34;5069055;28;20619;-65
2023/06/24 03:33:02;;;;;;;0.60;0.60;;;;;;;22.55;91.02;99450.22;5069851;28;20290;-65
2023/06/24 03:35:32;;;;;;;0.50;0.50;;;;;;;22.61;91.34;99454.94;5069217;28;20253;-65
2023/06/24 03:37:59;;;;;;;0.60;0.60;;;;;;;22.57;90.83;99430.00;5069819;28;20666;-65
2023/06/24 03:40:25;;;;;;;0.40;0.40;;;;;;;22.71;91.07;99442.84;5069424;28;20199;-65
2023/06/24 03:42:52;;;;;;;0.40;0.40;;;;;;;22.73;89.93;99440.94;5068659;28;20245;-65
2023/06/24 03:45:20;;;;;;;0.90;0.90;;;;;;;22.65;89.94;99427.59;5069965;28;20254;-65
2023/06/24 03:47:47;;;;;;;0.90;0.90;;;;;;;22.73;90.72;99430.47;5069407;28;20660;-65
2023/06/24 03:50:14;;;;;;;0.47;0.47;;;;;;;22.83;90.90;99436.63;5068155;28;20259;-65
2023/06/24 03:52:40;;;;;;;1.30;0.47;;;;;;;22.93;90.50;99437.56;5068429;28;20660;-65
2023/06/24 03:55:08;;;;;;;0.83;0.83;;;;;;;23.10;89.71;99448.47;5069266;28;20199;-65
2023/06/24 03:57:34;;;;;;;0.97;0.97;;;;;;;23.22;88.34;99437.00;5069694;28;20200;-65
2023/06/24 04:00:01;;;;;;;0.97;0.97;;;;;;;23.24;87.35;99437.69;5069775;28;20204;-65
2023/06/24 04:02:30;;;;;;;0.60;0.60;;;;;;;23.28;87.11;99436.50;5065968;28;20565;-65
2023/06/24 04:04:56;;;;;;;0.70;0.70;;;;;;;23.33;87.21;99440.38;5069722;28;20231;-65
2023/06/24 04:07:27;;;;;;;0.83;0.83;;;;;;;23.36;86.64;99439.31;5069964;28;20269;-66
2023/06/24 04:09:55;;;;;;;0.40;0.40;;;;;;;23.26;86.10;99448.88;5069675;28;20231;-65
2023/06/24 04:12:22;;;;;;;0.83;0.83;;;;;;;23.19;85.92;99450.31;5069184;28;20234;-65
2023/06/24 04:14:49;;;;;;;0.60;0.60;;;;;;;23.16;86.05;99455.81;5068372;28;20620;-64
2023/06/24 04:17:16;;;;;;;0.77;0.77;;;;;;;23.16;86.57;99458.41;5068434;28;20246;-65
2023/06/24 04:19:44;;;;;;;0.57;0.57;;;;;;;23.24;87.01;99461.22;5068062;28;20269;-65
2023/06/24 04:22:11;;;;;;;1.60;0.93;;;;;;;23.29;87.16;99454.69;5068934;28;20204;-66
2023/06/24 04:24:37;;;;;;;0.87;0.87;;;;;;;23.41;85.35;99458.09;5069789;28;20729;-65
2023/06/24 04:27:06;;;;;;;0.40;0.40;;;;;;;23.37;84.33;99461.88;5069595;28;20200;-65
2023/06/24 04:29:33;;;;;;;0.50;0.50;;;;;;;23.41;85.53;99465.97;5069775;28;20219;-65
2023/06/24 04:32:00;;;;;;;0.40;0.40;;;;;;;23.36;84.62;99465.47;5072532;28;20648;-66
2023/06/24 04:34:26;;;;;;;0.80;0.80;;;;;;;23.35;84.56;99472.50;5072335;28;20203;-65
2023/06/24 04:36:54;;;;;;;0.53;0.40;;;;;;;23.43;83.91;99482.34;5071335;28;20200;-65
2023/06/24 04:39:21;;;;;;;0.60;0.60;;;;;;;23.59;84.59;99482.75;5072479;28;20213;-66
2023/06/24 04:41:48;;;;;;;0.73;0.73;;;;;;;23.68;83.10;99489.88;5072834;28;20299;-65
2023/06/24 04:44:15;;;;;;;0.40;0.40;;;;;;;23.90;81.35;99494.97;5073299;28;20691;-65
2023/06/24 04:46:42;;;;;;;0.80;0.80;;;;;;;24.03;81.46;99493.00;5073619;28;20613;-65
2023/06/24 04:49:08;;;;;;;0.87;0.87;;;;;;;24.39;80.93;99499.56;5073427;28;20200;-65
2023/06/24 04:51:36;;;;;;;1.20;1.20;;;;;;;24.56;80.53;99491.06;5073501;28;20196;-66
2023/06/24 04:54:05;;;;;;;0.60;0.60;;;;;;;24.73;77.31;99500.09;5072386;28;20189;-66
2023/06/24 04:56:32;;;;;;;0.60;0.60;;;;;;;24.95;78.39;99502.53;5072188;28;20199;-66
2023/06/24 04:58:59;;;;;;;0.77;0.77;;;;;;;25.26;76.64;99505.09;5073572;28;20611;-65
2023/06/24 05:01:25;;;;;;;0.60;0.60;;;;;;;25.43;75.16;99501.75;5070860;28;20253;-65
2023/06/24 05:03:52;;;;;;;3.20;0.80;;;;;;;25.65;72.32;99514.66;5069856;28;20715;-66
2023/06/24 05:06:19;;;;;;;0.70;0.70;;;;;;;25.81;71.11;99517.56;5070920;28;20212;-65
2023/06/24 05:08:46;;;;;;;0.73;0.73;;;;;;;25.78;68.44;99517.84;5070621;28;20196;-65
2023/06/24 05:11:14;;;;;;;1.27;1.17;;;;;;;25.86;68.44;99514.50;5071381;28;20620;-65
2023/06/24 05:13:41;;;;;;;0.87;0.87;;;;;;;25.81;66.56;99512.31;5072800;28;20273;-65
2023/06/24 05:16:08;;;;;;;0.50;0.50;;;;;;;25.75;65.77;99512.84;5071917;28;20198;-65
2023/06/24 05:18:34;;;;;;;1.50;0.80;;;;;;;25.85;68.53;99512.84;5070329;28;20204;-65
2023/06/24 05:21:01;;;;;;;0.80;0.73;;;;;;;26.07;67.11;99523.84;5070926;28;20738;-66
2023/06/24 05:23:28;;;;;;;1.13;0.77;;;;;;;26.33;67.39;99523.28;5071917;28;20229;-66
2023/06/24 05:25:55;;;;;;;0.73;0.73;;;;;;;26.62;66.63;99524.03;5072095;28;20349;-66
2023/06/24 05:28:23;;;;;;;0.80;0.80;;;;;;;26.92;67.65;99531.66;5072096;28;20281;-66
2023/06/24 05:30:50;;;;;;;0.70;0.70;;;;;;;27.01;65.68;99535.22;5070974;28;20200;-66
2023/06/24 05:33:17;;;;;;;1.47;0.77;;;;;;;27.27;64.34;99530.88;5071526;28;20200;-66
2023/06/24 05:35:44;;;;;;;0.93;0.70;;;;;;;27.34;58.47;99523.19;5072005;28;20200;-65
2023/06/24 05:38:11;;;;;;;0.70;0.70;;;;;;;27.44;58.11;99532.72;5072649;28;20196;-65
2023/06/24 05:40:38;;;;;;;0.70;0.70;;;;;;;27.56;60.07;99534.16;5071626;28;20219;-66
2023/06/24 05:43:04;;;;;;;1.47;0.70;;;;;;;27.77;57.33;99533.00;5071106;28;20201;-66
2023/06/24 05:45:33;;;;;;;0.80;0.80;;;;;;;27.88;56.42;99525.72;5069379;28;20204;-66
2023/06/24 05:47:59;;;;;;;0.80;0.80;;;;;;;28.07;57.94;99528.19;5070388;28;20211;-66
2023/06/24 05:50:26;;;;;;;0.60;0.60;;;;;;;27.95;56.41;99510.94;5070819;28;20265;-66
2023/06/24 05:52:53;;;;;;;0.97;0.90;;;;;;;28.21;57.69;99525.97;5070762;28;21018;-66
2023/06/24 05:55:19;;;;;;;0.80;0.80;;;;;;;28.41;56.58;99528.22;5070249;28;20598;-64
2023/06/24 05:57:47;;;;;;;0.90;0.90;;;;;;;28.51;54.49;99525.47;5070213;28;20441;-64
2023/06/24 06:00:14;;;;;;;0.80;0.80;;;;;;;28.74;53.01;99529.25;5072563;28;20204;-63
2023/06/24 06:02:42;;;;;;;1.70;0.70;;;;;;;29.00;54.30;99524.72;5072621;28;20204;-64
2023/06/24 06:05:09;;;;;;;0.75;0.63;;;;;;;29.25;51.85;99527.44;5072696;28;20212;-64
2023/06/24 06:07:38;;;;;;;2.25;1.00;;;;;;;29.45;51.05;99526.16;5072304;28;20663;-64
2023/06/24 06:10:06;;;;;;;2.67;0.98;;;;;;;29.75;53.17;99530.81;5070479;28;20196;-64
2023/06/24 06:12:33;;;;;;;0.65;0.65;;;;;;;29.84;50.72;99527.22;5070708;28;20250;-64
2023/06/24 06:14:59;;;;;;;0.50;0.50;;;;;;;30.06;48.30;99528.34;5070985;28;20192;-64
2023/06/24 06:17:26;;;;;;;1.88;0.85;;;;;;;30.04;47.83;99517.13;5071852;28;20630;-64
2023/06/24 06:19:54;;;;;;;0.70;0.70;;;;;;;30.15;48.71;99512.31;5072137;28;20222;-64
2023/06/24 06:22:21;;;;;;;1.10;1.02;;;;;;;30.17;47.01;99509.50;5067967;28;20279;-64
2023/06/24 06:24:48;;;;;;;5.68;0.80;;;;;;;30.08;45.92;99506.03;5072174;28;20228;-64
2023/06/24 06:27:14;;;;;;;0.70;0.70;;;;;;;29.97;47.45;99508.19;5072112;28;20690;-64
2023/06/24 06:29:41;;;;;;;0.68;0.68;;;;;;;29.91;50.26;99504.41;5071917;28;20232;-64
2023/06/24 06:32:09;;;;;;;0.60;0.60;;;;;;;30.01;48.44;99501.59;5071783;28;20241;-64
2023/06/24 06:34:36;;;;;;;0.73;0.73;;;;;;;29.86;48.58;99495.31;5072075;28;20203;-64
2023/06/24 06:37:05;;;;;;;0.70;0.70;;;;;;;30.11;50.08;99500.41;5071800;28;20203;-64
2023/06/24 06:39:32;;;;;;;0.70;0.70;;;;;;;30.46;49.16;99501.03;5071791;28;20254;-65
2023/06/24 06:41:58;;;;;;;0.80;0.80;;;;;;;30.76;48.92;99500.22;5071876;28;20208;-64
2023/06/24 06:44:25;;;;;;;0.77;0.77;;;;;;;30.98;48.86;99504.81;5070981;28;20226;-64
2023/06/24 06:46:52;;;;;;;0.88;0.70;;;;;;;31.23;48.58;99503.66;5070518;28;20257;-64
2023/06/24 06:49:18;;;;;;;0.82;0.82;;;;;;;31.41;47.77;99497.22;5070262;28;20630;-64
2023/06/24 06:51:45;;;;;;;0.93;0.73;;;;;;;31.45;47.75;99493.22;5071641;28;20210;-64
2023/06/24 06:54:13;;;;;;;0.85;0.85;;;;;;;31.67;46.06;99490.59;5070707;28;20242;-64
2023/06/24 06:56:40;;;;;;;0.82;0.82;;;;;;;31.64;46.62;99490.94;5071459;28;20196;-64
2023/06/24 06:59:08;;;;;;;0.55;0.55;;;;;;;31.66;45.45;99488.13;5071532;28;20279;-64
2023/06/24 07:01:35;;;;;;;0.80;0.80;;;;;;;31.53;44.69;99482.59;5071714;28;20687;-64
2023/06/24 07:04:02;;;;;;;0.70;0.70;;;;;;;31.39;46.10;99484.16;5071389;28;20208;-64
2023/06/24 07:06:28;;;;;;;0.75;0.75;;;;;;;31.36;45.04;99481.88;5071517;28;20253;-65
2023/06/24 07:08:55;;;;;;;0.68;0.68;;;;;;;31.46;45.63;99482.47;5071518;28;20684;-64
2023/06/24 07:11:23;;;;;;;0.57;0.57;;;;;;;31.50;45.44;99489.09;5071318;28;20196;-65
2023/06/24 07:13:51;;;;;;;0.60;0.60;;;;;;;31.43;47.17;99482.00;5071327;28;20254;-65
2023/06/24 07:16:18;;;;;;;1.67;0.73;;;;;;;31.60;46.92;99483.53;5071265;28;20307;-64
2023/06/24 07:18:45;;;;;;;0.50;0.50;;;;;;;31.50;47.57;99480.31;5071303;28;20729;-65
2023/06/24 07:21:12;;;;;;;1.48;1.00;;;;;;;31.88;46.53;99471.34;5071653;28;20192;-65
2023/06/24 07:23:38;;;;;;;0.77;0.77;;;;;;;31.80;46.01;99468.75;5071149;28;20725;-65
2023/06/24 07:26:05;;;;;;;1.17;1.08;;;;;;;31.79;46.81;99472.44;5071239;28;20342;-65
2023/06/24 07:28:33;;;;;;;0.80;0.80;;;;;;;32.04;46.94;99479.19;5070911;28;20224;-64
2023/06/24 07:31:00;;;;;;;0.60;0.60;;;;;;;32.00;44.84;99477.03;5071097;28;20664;-64
2023/06/24 07:33:28;;;;;;;1.13;1.08;;;;;;;31.49;44.39;99486.56;5070796;28;20204;-65
2023/06/24 07:35:54;;;;;;;0.70;0.70;;;;;;;31.45;44.20;99479.97;5070942;28;20192;-64
2023/06/24 07:38:21;;;;;;;0.80;0.80;;;;;;;31.35;43.30;99474.09;5070808;28;20203;-65
2023/06/24 07:40:48;;;;;;;1.90;0.73;;;;;;;31.31;44.74;99468.31;5071008;28;20204;-64
2023/06/24 07:43:15;;;;;;;0.85;0.85;;;;;;;31.61;45.81;99479.88;5070900;28;20249;-64
2023/06/24 07:45:43;;;;;;;0.65;0.65;;;;;;;31.99;45.12;99486.81;5070951;28;20697;-64
2023/06/24 07:48:10;;;;;;;1.05;1.05;;;;;;;32.17;44.09;99484.69;5071084;28;20592;-64
2023/06/24 07:50:37;;;;;;;0.70;0.70;;;;;;;32.17;42.57;99487.31;5069257;28;20265;-65
2023/06/24 07:53:04;;;;;;;1.17;1.13;;;;;;;32.05;44.74;99472.06;5070088;28;20200;-64
2023/06/24 07:55:30;;;;;;;0.95;0.95;;;;;;;32.30;43.21;99486.69;5069043;28;20561;-65
2023/06/24 07:57:58;;;;;;;0.63;0.63;;;;;;;32.59;44.03;99480.56;5070065;28;20195;-65
2023/06/24 08:00:25;;;;;;;0.75;0.75;;;;;;;32.59;40.94;99484.06;5070784;28;20572;-64
2023/06/24 08:02:53;;;;;;;1.10;1.00;;;;;;;32.63;40.63;99481.84;5070960;28;20204;-64
2023/06/24 08:05:20;;;;;;;0.70;0.70;;;;;;;32.23;41.42;99470.69;5073087;28;20356;-64
2023/06/24 08:07:47;;;;;;;1.30;1.10;;;;;;;32.07;42.09;99481.47;5074703;28;20214;-64
2023/06/24 08:10:13;;;;;;;0.57;0.57;;;;;;;31.97;43.46;99475.56;5074823;28;20192;-64
2023/06/24 08:12:40;;;;;;;0.50;0.50;;;;;;;32.05;43.49;99482.66;5074487;28;20207;-64
2023/06/24 08:15:08;;;;;;;0.60;0.60;;;;;;;32.17;43.82;99474.06;5074531;28;20265;-65
2023/06/24 08:17:35;;;;;;;0.73;0.63;;;;;;;32.13;43.09;99483.38;5074369;28;20196;-64
2023/06/24 08:20:04;;;;;;;0.70;0.70;;;;;;;32.01;43.59;99476.03;5074473;28;20617;-64
2023/06/24 08:22:31;;;;;;;0.68;0.50;;;;;;;32.19;44.13;99476.53;5074482;28;20210;-64
2023/06/24 08:24:59;;;;;;;0.65;0.65;;;;;;;32.17;43.77;99476.72;5070507;28;20215;-65
2023/06/24 08:27:26;;;;;;;1.70;0.70;;;;;;;31.61;44.56;99454.19;5074375;28;20196;-65
2023/06/24 08:29:53;;;;;;;1.60;0.73;;;;;;;31.85;43.51;99470.88;5074259;28;20204;-64
2023/06/24 08:32:19;;;;;;;0.77;0.77;;;;;;;32.07;43.85;99470.84;5074376;28;20196;-65
2023/06/24 08:34:46;;;;;;;1.20;1.20;;;;;;;31.95;43.60;99477.59;5074043;28;20204;-65
2023/06/24 08:37:15;;;;;;;0.82;0.77;;;;;;;32.12;44.32;99468.47;5074367;28;20286;-64
2023/06/24 08:39:41;;;;;;;0.77;0.70;;;;;;;32.23;42.77;99480.47;5074105;28;20200;-65
2023/06/24 08:42:08;;;;;;;0.52;0.52;;;;;;;32.33;44.02;99466.91;5074318;28;20196;-64
2023/06/24 08:44:35;;;;;;;0.88;0.88;;;;;;;32.30;43.76;99473.44;5074204;28;20642;-65
2023/06/24 08:47:02;;;;;;;0.65;0.65;;;;;;;32.35;42.75;99476.34;5073545;28;20667;-64
2023/06/24 08:49:30;;;;;;;0.70;0.70;;;;;;;32.53;42.90;99473.31;5073749;28;20208;-65
2023/06/24 08:52:03;;;;;;;0.85;0.85;;;;;;;32.65;45.96;99471.84;5074186;28;20202;-64
2023/06/24 08:54:35;;;;;;;0.90;0.90;;;;;;;32.57;41.96;99474.63;5074036;28;20676;-65
2023/06/24 08:57:05;;;;;;;1.35;0.63;;;;;;;32.55;42.66;99469.47;5073878;28;20231;-65
2023/06/24 08:59:31;;;;;;;0.80;0.80;;;;;;;32.79;44.17;99476.34;5073794;28;20212;-65
2023/06/24 09:01:58;;;;;;;0.70;0.70;;;;;;;32.91;42.69;99474.84;5073566;28;20249;-66
2023/06/24 09:04:25;;;;;;;0.70;0.55;;;;;;;33.10;43.36;99474.25;5073822;28;20269;-65
2023/06/24 09:06:51;;;;;;;0.95;0.95;;;;;;;33.24;42.09;99476.03;5073514;28;20196;-65
2023/06/24 09:09:19;;;;;;;0.98;0.98;;;;;;;33.32;41.09;99469.75;5073899;28;20265;-65
2023/06/24 09:11:54;;;;;;;0.60;0.60;;;;;;;33.42;41.54;99466.78;5073665;28;20211;-65
2023/06/24 09:14:21;;;;;;;0.68;0.68;;;;;;;33.45;41.26;99461.06;5073528;28;20203;-65
2023/06/24 09:16:55;;;;;;;0.80;0.80;;;;;;;33.46;42.30;99473.38;5072658;28;20200;-65
2023/06/24 09:19:22;;;;;;;0.60;0.60;;;;;;;33.47;41.09;99461.72;5073549;28;20204;-65
2023/06/24 09:21:49;;;;;;;0.60;0.60;;;;;;;33.60;40.84;99453.88;5073487;28;20195;-65
2023/06/24 09:24:16;;;;;;;0.98;0.98;;;;;;;33.73;41.80;99456.66;5073428;28;20565;-65
2023/06/24 09:26:44;;;;;;;2.28;1.10;;;;;;;33.89;41.92;99459.03;5073300;28;20692;-65
2023/06/24 09:29:13;;;;;;;0.82;0.82;;;;;;;33.62;41.92;99447.38;5073020;28;20230;-65
2023/06/24 09:31:48;;;;;;;0.75;0.75;;;;;;;33.59;42.97;99444.25;5073106;28;20200;-66
2023/06/24 09:34:15;;;;;;;0.82;0.57;;;;;;;33.65;41.39;99446.97;5073080;28;20256;-65
2023/06/24 09:36:44;;;;;;;1.30;1.13;;;;;;;33.86;39.59;99442.63;5073025;28;20302;-66
2023/06/24 09:39:11;;;;;;;0.68;0.68;;;;;;;33.96;41.76;99441.25;5073043;28;20235;-65
2023/06/24 09:41:41;;;;;;;0.70;0.70;;;;;;;33.95;40.15;99431.66;5073300;28;20284;-65
2023/06/24 09:44:09;;;;;;;0.68;0.68;;;;;;;33.66;41.10;99426.53;5072878;28;20235;-65
2023/06/24 09:46:38;;;;;;;0.63;0.63;;;;;;;33.45;41.99;99418.53;5073160;28;20724;-65
2023/06/24 09:49:05;;;;;;;0.80;0.80;;;;;;;33.38;42.74;99412.38;5072842;28;20200;-65
2023/06/24 09:51:34;;;;;;;0.70;0.70;;;;;;;33.54;44.11;99402.25;5072831;28;20200;-65
2023/06/24 09:54:01;;;;;;;1.42;0.80;;;;;;;33.83;44.49;99401.25;5072643;28;20196;-65
2023/06/24 09:56:28;;;;;;;1.30;1.20;;;;;;;33.64;41.73;99401.94;5072880;28;20192;-65
2023/06/24 09:58:55;;;;;;;0.95;0.88;;;;;;;33.50;43.70;99400.19;5072933;28;20200;-66
2023/06/24 10:01:23;;;;;;;0.80;0.80;;;;;;;33.56;43.40;99394.94;5072835;28;20200;-65
2023/06/24 10:03:51;;;;;;;0.90;0.90;;;;;;;33.78;43.36;99393.06;5072799;28;20254;-64
2023/06/24 10:06:18;;;;;;;0.80;0.80;;;;;;;33.91;44.09;99390.47;5072438;28;20224;-65
2023/06/24 10:08:45;;;;;;;0.85;0.85;;;;;;;34.10;43.86;99381.78;5072991;28;20200;-64
2023/06/24 10:11:12;;;;;;;2.05;0.82;;;;;;;34.24;43.28;99383.53;5072675;28;20668;-64
2023/06/24 10:13:39;;;;;;;0.93;0.93;;;;;;;34.13;40.16;99377.94;5072596;28;20200;-64
2023/06/24 10:16:05;;;;;;;2.17;1.02;;;;;;;34.11;39.83;99385.31;5072426;28;20692;-65
2023/06/24 10:18:37;;;;;;;0.80;0.80;;;;;;;34.05;40.92;99389.56;5072566;28;20204;-65
2023/06/24 10:21:06;;;;;;;1.52;0.70;;;;;;;33.70;42.30;99385.25;5072458;28;20231;-65
2023/06/24 10:23:39;;;;;;;0.90;0.90;;;;;;;33.77;43.19;99388.75;5072301;28;20206;-65
2023/06/24 10:26:09;;;;;;;0.65;0.65;;;;;;;33.77;42.85;99381.59;5071926;28;20208;-65
2023/06/24 10:29:09;;;;;;;0.70;0.70;;;;;;;33.85;41.61;99367.34;5072057;28;20224;-65
2023/06/24 10:31:55;;;;;;;0.75;0.75;;;;;;;33.85;43.17;99377.16;5068995;28;20200;-65
2023/06/24 10:34:30;;;;;;;0.82;0.82;;;;;;;34.01;43.42;99366.19;5072274;28;20580;-65
2023/06/24 10:37:01;;;;;;;0.85;0.85;;;;;;;34.21;42.57;99357.31;5072081;28;20659;-65
2023/06/24 10:39:48;;;;;;;0.93;0.93;;;;;;;34.12;43.30;99363.81;5071190;28;20572;-65
2023/06/24 10:42:41;;;;;;;0.85;0.85;;;;;;;34.23;44.61;99355.25;5071625;28;20211;-65
2023/06/24 10:45:21;;;;;;;0.88;0.88;;;;;;;34.19;43.76;99354.00;5069037;28;20640;-65
2023/06/24 10:47:50;;;;;;;0.73;0.73;;;;;;;34.17;42.66;99358.72;5071796;28;20231;-65
2023/06/24 10:50:19;;;;;;;0.95;0.95;;;;;;;34.24;41.49;99351.59;5071754;28;20234;-65
2023/06/24 10:52:48;;;;;;;0.82;0.82;;;;;;;34.24;41.94;99346.25;5071769;28;20199;-65
2023/06/24 10:55:16;;;;;;;1.05;1.02;;;;;;;34.29;41.59;99341.16;5071536;28;20203;-65
2023/06/24 10:57:43;;;;;;;0.70;0.70;;;;;;;34.25;42.24;99342.56;5071868;28;20227;-65
2023/06/24 11:00:13;;;;;;;0.93;0.93;;;;;;;34.14;41.91;99313.88;5071660;28;20200;-65
2023/06/24 11:02:40;;;;;;;0.85;0.80;;;;;;;34.35;41.82;99322.75;5071571;28;20254;-65
2023/06/24 11:05:07;;;;;;;0.85;0.85;;;;;;;34.36;42.01;99319.06;5071308;28;20212;-65
2023/06/24 11:07:36;;;;;;;1.55;0.90;;;;;;;34.23;42.59;99320.66;5071395;28;20258;-65
2023/06/24 11:10:06;;;;;;;0.77;0.75;;;;;;;34.33;41.98;99306.16;5071481;28;20196;-65
2023/06/24 11:12:34;;;;;;;0.73;0.73;;;;;;;34.31;41.17;99302.88;5071362;28;20196;-66
2023/06/24 11:15:03;;;;;;;0.77;0.77;;;;;;;34.28;42.18;99291.59;5071224;28;20200;-65
2023/06/24 11:17:30;;;;;;;0.95;0.95;;;;;;;34.39;41.76;99289.38;5071204;28;20196;-66
2023/06/24 11:19:58;;;;;;;0.98;0.98;;;;;;;34.16;41.31;99279.91;5071381;28;20192;-66
2023/06/24 11:22:25;;;;;;;1.08;0.65;;;;;;;34.16;41.17;99284.41;5071199;28;20196;-66
2023/06/24 11:24:52;;;;;;;1.13;1.02;;;;;;;34.29;42.19;99279.94;5071124;28;20249;-66
2023/06/24 11:27:25;;;;;;;0.73;0.73;;;;;;;34.44;42.11;99276.28;5071124;28;20203;-66
2023/06/24 11:29:53;;;;;;;0.75;0.75;;;;;;;34.59;41.98;99274.25;5067544;28;20580;-66
2023/06/24 11:32:20;;;;;;;1.15;0.73;;;;;;;34.56;41.60;99269.34;5068855;28;20695;-66
2023/06/24 11:34:47;;;;;;;0.60;0.60;;;;;;;34.62;41.36;99273.88;5071151;28;20200;-66
2023/06/24 11:37:15;;;;;;;1.10;1.10;;;;;;;34.72;41.51;99268.97;5071201;28;20737;-65
2023/06/24 11:39:42;;;;;;;1.08;0.98;;;;;;;34.70;39.96;99260.38;5070380;28;20195;-66